Map

Track Data

SID SEASON NUMBER BASIN SUBBASIN NAME ISO_TIME NATURE LAT LON WMO_WIND WMO_PRES WMO_AGENCY TRACK_TYPE DIST2LAND LANDFALL IFLAG USA_AGENCY USA_ATCF_ID USA_LAT USA_LON USA_RECORD USA_STATUS USA_WIND USA_PRES USA_SSHS USA_R34_NE USA_R34_SE USA_R34_SW USA_R34_NW USA_R50_NE USA_R50_SE USA_R50_SW USA_R50_NW USA_R64_NE USA_R64_SE USA_R64_SW USA_R64_NW USA_POCI USA_ROCI USA_RMW USA_EYE TOKYO_LAT TOKYO_LON TOKYO_GRADE TOKYO_WIND TOKYO_PRES TOKYO_R50_DIR TOKYO_R50_LONG TOKYO_R50_SHORT TOKYO_R30_DIR TOKYO_R30_LONG TOKYO_R30_SHORT TOKYO_LAND CMA_LAT CMA_LON CMA_CAT CMA_WIND CMA_PRES HKO_LAT HKO_LON HKO_CAT HKO_WIND HKO_PRES NEWDELHI_LAT NEWDELHI_LON NEWDELHI_GRADE NEWDELHI_WIND NEWDELHI_PRES NEWDELHI_CI NEWDELHI_DP NEWDELHI_POCI REUNION_LAT REUNION_LON REUNION_TYPE REUNION_WIND REUNION_PRES REUNION_TNUM REUNION_CI REUNION_RMW REUNION_R34_NE REUNION_R34_SE REUNION_R34_SW REUNION_R34_NW REUNION_R50_NE REUNION_R50_SE REUNION_R50_SW REUNION_R50_NW REUNION_R64_NE REUNION_R64_SE REUNION_R64_SW REUNION_R64_NW BOM_LAT BOM_LON BOM_TYPE BOM_WIND BOM_PRES BOM_TNUM BOM_CI BOM_RMW BOM_R34_NE BOM_R34_SE BOM_R34_SW BOM_R34_NW BOM_R50_NE BOM_R50_SE BOM_R50_SW BOM_R50_NW BOM_R64_NE BOM_R64_SE BOM_R64_SW BOM_R64_NW BOM_ROCI BOM_POCI BOM_EYE BOM_POS_METHOD BOM_PRES_METHOD NADI_LAT NADI_LON NADI_CAT NADI_WIND NADI_PRES WELLINGTON_LAT WELLINGTON_LON WELLINGTON_WIND WELLINGTON_PRES DS824_LAT DS824_LON DS824_STAGE DS824_WIND DS824_PRES TD9636_LAT TD9636_LON TD9636_STAGE TD9636_WIND TD9636_PRES TD9635_LAT TD9635_LON TD9635_WIND TD9635_PRES TD9635_ROCI NEUMANN_LAT NEUMANN_LON NEUMANN_CLASS NEUMANN_WIND NEUMANN_PRES MLC_LAT MLC_LON MLC_CLASS MLC_WIND MLC_PRES USA_GUST BOM_GUST BOM_GUST_PER REUNION_GUST REUNION_GUST_PER USA_SEAHGT USA_SEARAD_NE USA_SEARAD_SE USA_SEARAD_SW USA_SEARAD_NW STORM_SPEED STORM_DIR
1941041S13075 1941 10 SI MM NOT_NAMED 1941-02-10 06:00:00 TS -13.0000 74.5000 main 1956 1941 _________OO___ -1 -13.0000 74.5000 TC 25 -13.0000 74.5000 1 3 224
1941041S13075 1941 10 SI MM NOT_NAMED 1941-02-10 09:00:00 TS -13.0942 74.4056 main 1941 1926 _________PP___ -1 -13.1025 74.4050 TC 25 -13.0859 74.4062 1 3 226
1941041S13075 1941 10 SI MM NOT_NAMED 1941-02-10 12:00:00 TS -13.1887 74.3000 main 1926 1912 _________OP___ -1 -13.2000 74.3000 TC 25 -13.1774 74.2999 1 3 230
1941041S13075 1941 10 SI MM NOT_NAMED 1941-02-10 15:00:00 TS -13.2864 74.1706 main 1912 1887 _________PP___ -1 -13.2925 74.1725 TC 25 -13.2803 74.1687 1 4 234
1941041S13075 1941 10 SI MM NOT_NAMED 1941-02-10 18:00:00 TS -13.4000 74.0000 main 1887 1863 _________OO___ -1 -13.4000 74.0000 TC 25 -13.4000 74.0000 1 5 236
1941041S13075 1941 10 SI MM NOT_NAMED 1941-02-10 21:00:00 TS -13.5411 73.7755 main 1863 1824 _________PP___ -1 -13.5425 73.7650 TC 25 -13.5398 73.7860 1 6 238
1941041S13075 1941 10 SI MM NOT_NAMED 1941-02-11 00:00:00 TS -13.6963 73.5188 main 1824 1800 _________OP___ -1 -13.7000 73.5000 TC 25 -13.6926 73.5376 1 6 238
1941041S13075 1941 10 SI MM NOT_NAMED 1941-02-11 03:00:00 TS -13.8495 73.2602 main 1800 1761 _________PP___ -1 -13.8500 73.2500 TC 25 -13.8491 73.2704 1 6 239
1941041S13075 1941 10 SI MM NOT_NAMED 1941-02-11 06:00:00 TS -14.0000 73.0000 main 1761 1736 _________OO___ -1 -14.0000 73.0000 TC 25 -14.0000 73.0000 1 6 239
1941041S13075 1941 10 SI MM NOT_NAMED 1941-02-11 09:00:00 TS -14.1448 72.7499 main 1727 1698 _________PP___ -1 -14.1575 72.7500 TC 25 -14.1321 72.7499 1 6 240
1941041S13075 1941 10 SI MM NOT_NAMED 1941-02-11 12:00:00 TS -14.2787 72.4999 main 1698 1673 _________OP___ -1 -14.3000 72.5000 TC 25 -14.2574 72.4998 1 5 243
1941041S13075 1941 10 SI MM NOT_NAMED 1941-02-11 15:00:00 TS -14.3895 72.2499 main 1664 1639 _________PP___ -1 -14.4000 72.2499 TC 25 -14.3790 72.2499 1 5 245
1941041S13075 1941 10 SI MM NOT_NAMED 1941-02-11 18:00:00 TS -14.5000 72.0000 main 1639 1615 _________OO___ -1 -14.5000 72.0000 TC 25 -14.5000 72.0000 1 5 244
1941041S13075 1941 10 SI MM NOT_NAMED 1941-02-11 21:00:00 TS -14.6211 71.7579 main 1615 1581 _________PP___ -1 -14.6500 71.7500 TC 25 -14.5923 71.7657 1 5 242
1941041S13075 1941 10 SI MM NOT_NAMED 1941-02-12 00:00:00 TS -14.7448 71.5146 main 1581 1557 _________OP___ -1 -14.8000 71.5000 TC 25 -14.6897 71.5292 1 5 243
1941041S13075 1941 10 SI MM NOT_NAMED 1941-02-12 03:00:00 TS -14.8358 71.3161 main 1557 1518 _________PP___ -1 -14.8543 71.3542 TC 25 -14.8172 71.2781 1 6 243
1941041S13075 1941 10 SI MM NOT_NAMED 1941-02-12 06:00:00 TS -15.0000 71.0000 main 1518 1446 _________OO___ -1 -15.0000 71.0000 TC 25 -15.0000 71.0000 1 10 241
1941041S13075 1941 10 SI MM NOT_NAMED 1941-02-12 09:00:00 TS -15.3251 70.4114 main 1446 1368 _________PP___ -1 -15.3907 70.1479 TC 25 -15.2595 70.6749 1 14 239
1941041S13075 1941 10 SI MM NOT_NAMED 1941-02-12 12:00:00 TS -15.7376 69.7113 main 1359 1268 _________OP___ -1 -15.9000 69.1000 TC 25 -15.5751 70.3227 1 16 238
1941041S13075 1941 10 SI MM NOT_NAMED 1941-02-12 15:00:00 TS -16.1832 68.9901 main 1268 1201 _________PP___ -1 -16.4382 68.0211 TC 25 -15.9282 69.9591 1 15 235
1941041S13075 1941 10 SI MM NOT_NAMED 1941-02-12 18:00:00 TS -16.6000 68.4500 main 1201 1169 _________OO___ -1 -16.9000 67.3000 TC 25 -16.3000 69.6000 1 10 222
1941041S13075 1941 10 SI MM NOT_NAMED 1941-02-12 21:00:00 TS -16.9151 68.3143 main 1169 1162 _________PP___ -1 -17.1370 67.3767 TC 25 -16.6931 69.2518 1 6 188
1941041S13075 1941 10 SI MM NOT_NAMED 1941-02-13 00:00:00 TS -17.1975 68.3565 main 1168 1158 _________OP___ -1 -17.3000 67.8000 TC 25 -17.0950 68.9130 1 6 176
1941041S13075 1941 10 SI MM NOT_NAMED 1941-02-13 03:00:00 TS -17.5122 68.3549 main 1158 1138 _________PP___ -1 -17.5501 68.1173 TC 25 -17.4744 68.5925 1 6 185
1941041S13075 1941 10 SI MM NOT_NAMED 1941-02-13 06:00:00 TS -17.8000 68.3000 main 1138 1111 _________OO___ -1 -17.8000 68.3000 TC 25 -17.8000 68.3000 1 6 205
1941041S13075 1941 10 SI MM NOT_NAMED 1941-02-13 09:00:00 TS -18.0318 68.1003 main 1111 1085 _________PP___ -1 -18.0150 68.1752 TC 25 -18.0486 68.0255 1 6 226
1941041S13075 1941 10 SI MM NOT_NAMED 1941-02-13 12:00:00 TS -18.2199 67.8410 main 1075 1049 _________OP___ -1 -18.2000 67.9000 TC 25 -18.2398 67.7820 1 6 234
1941041S13075 1941 10 SI MM NOT_NAMED 1941-02-13 15:00:00 TS -18.3756 67.6038 main 1049 1026 _________PP___ -1 -18.3651 67.6350 TC 25 -18.3862 67.5725 1 5 236
1941041S13075 1941 10 SI MM NOT_NAMED 1941-02-13 18:00:00 TS -18.5000 67.4000 main 1026 1013 _________OO___ -1 -18.5000 67.4000 TC 25 -18.5000 67.4000 1 4 233
1941041S13075 1941 10 SI MM NOT_NAMED 1941-02-13 21:00:00 TS -18.6113 67.2747 main 1013 1001 _________PP___ -1 -18.6149 67.2774 TC 25 -18.6076 67.2719 1 3 226
1941041S13075 1941 10 SI MM NOT_NAMED 1941-02-14 00:00:00 TS -18.6936 67.1886 main 1001 988 _________OP___ -1 -18.7000 67.2000 TC 25 -18.6872 67.1772 1 2 229
1941041S13075 1941 10 SI MM NOT_NAMED 1941-02-14 03:00:00 TS -18.7529 67.1007 main 988 978 _________PP___ -1 -18.7575 67.1075 TC 25 -18.7483 67.0939 1 2 239
1941041S13075 1941 10 SI MM NOT_NAMED 1941-02-14 06:00:00 TS -18.8000 67.0000 main 978 965 _________OO___ -1 -18.8000 67.0000 TC 25 -18.8000 67.0000 1 2 243
1941041S13075 1941 10 SI MM NOT_NAMED 1941-02-14 09:00:00 TS -18.8534 66.8873 main 965 955 _________PP___ -1 -18.8500 66.8575 TC 25 -18.8567 66.9170 1 3 246
1941041S13075 1941 10 SI MM NOT_NAMED 1941-02-14 12:00:00 TS -18.9033 66.7561 main 955 934 _________OP___ -1 -18.9000 66.7000 TC 25 -18.9067 66.8122 1 3 249
1941041S13075 1941 10 SI MM NOT_NAMED 1941-02-14 15:00:00 TS -18.9516 66.6232 main 932 912 _________PP___ -1 -18.9498 66.5949 TC 25 -18.9533 66.6514 1 4 254
1941041S13075 1941 10 SI MM NOT_NAMED 1941-02-14 18:00:00 TS -19.0000 66.4000 main 912 870 _________OO___ -1 -19.0000 66.4000 TC 25 -19.0000 66.4000 1 6 261
1941041S13075 1941 10 SI MM NOT_NAMED 1941-02-14 21:00:00 TS -19.0423 66.0022 main 870 817 _________PP___ -1 -19.0501 66.0025 TC 25 -19.0345 66.0020 1 8 264
1941041S13075 1941 10 SI MM NOT_NAMED 1941-02-15 00:00:00 TS -19.0855 65.5086 main 817 765 _________OP___ -1 -19.1000 65.5000 TC 25 -19.0711 65.5171 1 10 265
1941041S13075 1941 10 SI MM NOT_NAMED 1941-02-15 03:00:00 TS -19.1285 64.9956 main 765 711 _________PP___ -1 -19.1350 64.9924 TC 30 -19.1220 64.9987 1 10 263
1941041S13075 1941 10 SI MM NOT_NAMED 1941-02-15 06:00:00 TS -19.2000 64.5000 main 711 668 _________OO___ -1 -19.2000 64.5000 TC 35 -19.2000 64.5000 2 9 257
1941041S13075 1941 10 SI MM NOT_NAMED 1941-02-15 09:00:00 TS -19.3255 64.1030 main 668 633 _________PP___ -1 -19.3349 64.0775 TC 35 -19.3161 64.1285 2 8 249
1941041S13075 1941 10 SI MM NOT_NAMED 1941-02-15 12:00:00 TS -19.4805 63.7397 main 623 590 _________OP___ -1 -19.5000 63.7000 TC 35 -19.4609 63.7795 2 7 245
1941041S13075 1941 10 SI MM NOT_NAMED 1941-02-15 15:00:00 TS -19.6338 63.3940 main 590 545 _________PP___ -1 -19.6422 63.3723 TC 35 -19.6254 63.4158 2 8 245
1941041S13075 1941 10 SI MM NOT_NAMED 1941-02-15 18:00:00 TS -19.8000 63.0000 main 545 492 _________OO___ -1 -19.8000 63.0000 TC 35 -19.8000 63.0000 2 9 249
1941041S13075 1941 10 SI MM NOT_NAMED 1941-02-15 21:00:00 TS -19.9579 62.4723 main 491 428 _________PP___ -1 -20.0000 62.4876 TC 35 -19.9158 62.4571 2 11 253
1941041S13075 1941 10 SI MM NOT_NAMED 1941-02-16 00:00:00 TS -20.1231 61.8817 main 428 364 _________OP___ -1 -20.2000 61.9000 TC 35 -20.0461 61.8634 2 12 254
1941041S13075 1941 10 SI MM NOT_NAMED 1941-02-16 03:00:00 TS -20.2741 61.2850 main 364 303 _________PP___ -1 -20.3199 61.3069 TC 35 -20.2283 61.2631 2 12 251
1941041S13075 1941 10 SI MM NOT_NAMED 1941-02-16 06:00:00 TS -20.5000 60.7000 main 303 245 _________OO___ -1 -20.5000 60.7000 TC 35 -20.5000 60.7000 2 13 242
1941041S13075 1941 10 SI MM NOT_NAMED 1941-02-16 09:00:00 TS -20.8636 60.0826 main 248 216 _________PP___ -1 -20.8327 60.0478 TC 35 -20.8945 60.1173 2 14 232
1941041S13075 1941 10 SI MM NOT_NAMED 1941-02-16 12:00:00 TS -21.3401 59.5462 main 207 205 _________OP___ -1 -21.3000 59.5000 TC 35 -21.3801 59.5925 2 13 220
1941041S13075 1941 10 SI MM NOT_NAMED 1941-02-16 15:00:00 TS -21.8976 59.1632 main 220 213 _________PP___ -1 -21.8697 59.1304 TC 35 -21.9256 59.1961 2 13 204
1941041S13075 1941 10 SI MM NOT_NAMED 1941-02-16 18:00:00 TS -22.5000 59.0000 main 260 260 _________OO___ -1 -22.5000 59.0000 TC 35 -22.5000 59.0000 2 12 184
1941041S13075 1941 10 SI MM NOT_NAMED 1941-02-16 21:00:00 TS -23.0778 59.0718 main 324 324 _________PP___ -1 -23.1074 59.1022 TC 30 -23.0483 59.0414 2 12 165
1941041S13075 1941 10 SI MM NOT_NAMED 1941-02-17 00:00:00 TS -23.6593 59.3457 main 393 393 _________OP___ -1 -23.7000 59.4000 TC 25 -23.6187 59.2913 2 13 153
1941041S13075 1941 10 SI MM NOT_NAMED 1941-02-17 03:00:00 TS -24.2273 59.7181 main 461 461 _________PP___ -1 -24.2498 59.7405 TC 25 -24.2047 59.6958 2 14 146
1941041S13075 1941 10 SI MM NOT_NAMED 1941-02-17 06:00:00 TS -24.8000 60.2000 main 544 544 _________OO___ -1 -24.8000 60.2000 TC 25 -24.8000 60.2000 1 15 142
1941041S13075 1941 10 SI MM NOT_NAMED 1941-02-17 09:00:00 TS -25.3842 60.7208 main 627 627 _________PP___ -1 -25.3926 60.7701 TC 25 -25.3759 60.6714 1 16 140
1941041S13075 1941 10 SI MM NOT_NAMED 1941-02-17 12:00:00 TS -25.9806 61.3158 main 716 716 _________OP___ -1 -26.0000 61.4000 TC 25 -25.9611 61.2317 1 16 138
1941041S13075 1941 10 SI MM NOT_NAMED 1941-02-17 15:00:00 TS -26.5750 61.9200 main 804 804 _________PP___ -1 -26.5842 61.9641 TC 25 -26.5658 61.8760 1 17 137
1941041S13075 1941 10 SI MM NOT_NAMED 1941-02-17 18:00:00 TS -27.2000 62.6000 main 899 899 _________OO___ -1 -27.2000 62.6000 TC 25 -27.2000 62.6000 1 19 135
1941041S13075 1941 10 SI MM NOT_NAMED 1941-02-17 21:00:00 TS -27.8776 63.4017 main 1008 1008 _________PP___ -1 -27.8850 63.4053 TC 25 -27.8701 63.3982 1 20 133
1941041S13075 1941 10 SI MM NOT_NAMED 1941-02-18 00:00:00 TS -28.5840 64.2789 main 1123 1123 _________OP___ -1 -28.6000 64.3000 TC 25 -28.5681 64.2579 1 21 132
1941041S13075 1941 10 SI MM NOT_NAMED 1941-02-18 03:00:00 TS -29.2939 65.1821 main 1239 1239 _________PP___ -1 -29.3059 65.2004 TC 25 -29.2820 65.1639 1 21 132
1941041S13075 1941 10 SI MM NOT_NAMED 1941-02-18 06:00:00 TS -30.0000 66.1000 main 1355 _________OO___ -1 -30.0000 66.1000 TC 25 -30.0000 66.1000 1 21 132

About IBTrACS Database

This database is a web-friendly format of International Best Track Archive for Climate Stewardship (IBTrACS), a global best track data archive curated by NOAA dating back to 1842.

Updated: 2021-10-08